Juneau, Alaska
Current Conditions -  °F | °C
As of 10:53 PM on Saturday 25 Oct 2014 (Local Time) from PAJN Reporting Station
Scattered Clouds Scattered Clouds  
Wind Chill: 33°   Ceiling: Unl
Heat Index: 33°   Visibility: 7mi
Dew Point: 32°   Wind: 0mph
Humidity: 96%   Direction: NA
Pressure: 29.72"   Gusts: NA
Location:  58.37°N, 134.57°W
Report Text: PAJN 260653Z 00000KT 7SM SCT001 SCT055 01/00 A2972 RMK AO2 SLP063 SCT055 V BKN T00060000 $
Loading
Personal Weather Stations






























Interactive Weather Map
Tropical Storm Tracking
New forecast layout! Learn more

10-Day Weather Forecast

Advertisements
Track Severe Weather on mobile